Nearby METAR Reports

 

KCFV - Coffeyville, Kansas, USA
Distance from station: ENE 93mi, 150km
Updated: Mon, 24-Jul-2017 12:52am CDT
Mist, Clear
Mist, Clear
 Wind from S
Wind: S 7 mph , 11 km/h
Temperature: 75°F , 24°C
Dew Point: 72°F , 22°C
Humidity: 89%
Barometer: 1014.2 hPa
Summary: Mist
Clouds: Clear
Visibility: 6 miles , 10 km
2017/07/24 05:52 KCFV 240552Z AUTO 18006KT 6SM BR CLR 24/22 A2995 RMK AO2 SLP133 T02440222 10317 20239 403440211 53008
KIDP - Independence, Kansas, USA
Distance from station: NE 86mi, 138km
Updated: Mon, 24-Jul-2017 1:15am CDT
Clear
Clear
 Wind from calm
Wind: Calm
Temperature: 73°F , 23°C
Dew Point: 72°F , 22°C
Humidity: 94%
Barometer: 1014.2 hPa
Clouds: Clear
Visibility: 10 miles , 16 km
2017/07/24 06:15 KIDP 240615Z AUTO 00000KT 10SM CLR 23/22 A2995 RMK AO2 T02330225
KIAB - Mcconnell Afb, Kansas, USA
Distance from station: N 84mi, 135km
Updated: Mon, 24-Jul-2017 12:58am CDT
Clear
Clear
 Wind from SSE
Wind: SSE 6 mph , 9 km/h
Temperature: 81°F , 27°C
Heat Index: 84°F , 29°C
Dew Point: 68°F , 20°C
Humidity: 66%
Barometer: 1014.9 hPa
Clouds: Clear
Visibility: 10 miles , 16 km
2017/07/24 05:58 KIAB 240558Z AUTO 16005KT 10SM CLR 27/20 A2997 RMK AO2 SLP135 T02670202 10329 20267 403350216 50006
 
KICT - Wichita, Kansas, USA
Distance from station: NNW 88mi, 142km
Updated: Mon, 24-Jul-2017 12:53am CDT
Few Clouds
Few Clouds
 Wind from ESE
Wind: ESE 7 mph , 11 km/h
Temperature: 79°F , 26°C
Dew Point: 70°F , 21°C
Humidity: 74%
Barometer: 1014.6 hPa
Clouds: Few Clouds
Visibility: 10 miles , 16 km
Cloud details: Few Clouds 25000 ft
2017/07/24 05:53 KICT 240553Z 11006KT 10SM FEW250 26/21 A2996 RMK AO2 SLP128 T02610211 10333 20261 403440222 51006
KAAO - Wichita/Jabara, Kansas, USA
Distance from station: N 93mi, 149km
Updated: Mon, 24-Jul-2017 12:54am CDT
Clear
Clear
 Wind from S
Wind: S 3 mph , 6 km/h
Temperature: 75°F , 24°C
Dew Point: 72°F , 22°C
Humidity: 89%
Barometer: 1014.9 hPa
Clouds: Clear
Visibility: 10 miles , 16 km
2017/07/24 05:54 KAAO 240554Z AUTO 18003KT 10SM CLR 24/22 A2997 RMK AO2 SLP131 T02390217 10317 20239 403390211 51005 $
KWLD - Winfield/Arkansa, Kansas, USA
Distance from station: N 52mi, 84km
Updated: Mon, 24-Jul-2017 12:54am CDT
Clear
Clear
 Wind from calm
Wind: Calm
Temperature: 73°F , 23°C
Dew Point: 68°F , 20°C
Humidity: 83%
Barometer: 1015.2 hPa
Clouds: Clear
Visibility: 10 miles , 16 km
2017/07/24 05:54 KWLD 240554Z AUTO 00000KT 10SM CLR 23/20 A2998 RMK AO2 SLP138 T02280200 10339 20228 403500228 53012
 
KAVK - Alva, Oklahoma, USA
Distance from station: WNW 94mi, 152km
Updated: Mon, 24-Jul-2017 1:15am CDT
Clear
Clear
 Wind from SSW
Wind: SSW 6 mph , 9 km/h
Temperature: 79°F , 26°C
Dew Point: 63°F , 17°C
Humidity: 58%
Barometer: 1015.2 hPa
Clouds: Clear
Visibility: 10 miles , 16 km
2017/07/24 06:15 KAVK 240615Z AUTO 21005KT 10SM CLR 26/17 A2998 RMK AO2
KBVO - Bartlesville, Oklahoma, USA
Distance from station: ENE 61mi, 98km
Updated: Mon, 24-Jul-2017 12:53am CDT
Clear
Clear
 Wind from calm
Wind: Calm
Temperature: 72°F , 22°C
Dew Point: 70°F , 21°C
Humidity: 94%
Barometer: 1014.6 hPa
Clouds: Clear
Visibility: 10 miles , 16 km
2017/07/24 05:53 KBVO 240553Z AUTO 00000KT 10SM CLR 22/21 A2996 RMK AO2 SLP132 T02220206 10328 20211 403500211 53009
KBKN - Blackwell, Oklahoma, USA
Distance from station: NW 29mi, 47km
Updated: Mon, 24-Jul-2017 1:15am CDT
Clear
Clear
 Wind from calm
Wind: Calm
Temperature: 75°F , 24°C
Dew Point: 70°F , 21°C
Humidity: 83%
Barometer: 1015.2 hPa
Clouds: Clear
Visibility: 10 miles , 16 km
2017/07/24 06:15 KBKN 240615Z AUTO 00000KT 10SM CLR 24/21 A2998 RMK AO2
 
KGCM - Claremore, Oklahoma, USA
Distance from station: E 86mi, 138km
Updated: Mon, 24-Jul-2017 1:15am CDT
Clear
Clear
 Wind from calm
Wind: Calm
Temperature: 70°F , 21°C
Dew Point: 68°F , 20°C
Humidity: 94%
Barometer: 1014.9 hPa
Clouds: Clear
Visibility: 10 miles , 16 km
2017/07/24 06:15 KGCM 240615Z AUTO 00000KT 10SM CLR 21/20 A2997 RMK AO2
KCQB - Chandler, Oklahoma, USA
Distance from station: SSE 50mi, 80km
Updated: Mon, 24-Jul-2017 1:15am CDT
Clear
Clear
 Wind from SSE
Wind: SSE 3 mph , 6 km/h
Temperature: 70°F , 21°C
Dew Point: 70°F , 21°C
Humidity: 100%
Barometer: 1014.6 hPa
Clouds: Clear
Visibility: 10 miles , 16 km
2017/07/24 06:15 KCQB 240615Z AUTO 16003KT 10SM CLR 21/21 A2996 RMK AO2 T02140210
KCUH - Cushing, Oklahoma, USA
Distance from station: SSE 35mi, 57km
Updated: Mon, 24-Jul-2017 1:15am CDT
Clear
Clear
 Wind from S
Wind: S 3 mph , 6 km/h
Temperature: 72°F , 22°C
Dew Point: 70°F , 21°C
Humidity: 94%
Barometer: 1014.2 hPa
Clouds: Clear
Visibility: 10 miles , 16 km
2017/07/24 06:15 KCUH 240615Z AUTO 18003KT 10SM CLR 22/21 A2995 RMK AO2 T02190206
 
KRQO - El Reno Muni, Oklahoma, USA
Distance from station: SW 85mi, 137km
Updated: Mon, 24-Jul-2017 1:15am CDT
Clear
Clear
 Wind from S
Wind: S 13 mph , 20 km/h
Temperature: 75°F , 24°C
Dew Point: 70°F , 21°C
Humidity: 83%
Barometer: 1015.9 hPa
Clouds: Clear
Visibility: 10 miles , 16 km
2017/07/24 06:15 KRQO 240615Z AUTO 18011KT 10SM CLR 24/21 A3000 RMK AO2 T02360206
KEND - Enid/Vance Afb, Oklahoma, USA
Distance from station: W 50mi, 81km
Updated: Mon, 24-Jul-2017 12:58am CDT
Clear
Clear
 Wind from SSE
Wind: SSE 7 mph , 11 km/h
Temperature: 77°F , 25°C
Dew Point: 68°F , 20°C
Humidity: 74%
Barometer: 1014.6 hPa
Clouds: Clear
Visibility: 10 miles , 16 km
2017/07/24 05:58 KEND 240558Z AUTO 15006KT 10SM CLR 25/20 A2996 RMK AO2 SLP132 T02450204 10331 20239 52012 $
KWDG - Enid/Woodring, Oklahoma, USA
Distance from station: W 42mi, 67km
Updated: Mon, 24-Jul-2017 1:15am CDT
Clear
Clear
 Wind from calm
Wind: Calm
Temperature: 72°F , 22°C
Dew Point: 68°F , 20°C
Humidity: 88%
Barometer: 1014.2 hPa
Clouds: Clear
Visibility: 10 miles , 16 km
2017/07/24 06:15 KWDG 240615Z AUTO 00000KT 10SM CLR 22/20 A2995 RMK AO2
 
KGOK - Guthrie, Oklahoma, USA
Distance from station: SSW 44mi, 71km
Updated: Mon, 24-Jul-2017 12:53am CDT
Clear
Clear
 Wind from calm
Wind: Calm
Temperature: 73°F , 23°C
Dew Point: 68°F , 20°C
Humidity: 83%
Barometer: 1014.2 hPa
Clouds: Clear
Visibility: 10 miles , 16 km
2017/07/24 05:53 KGOK 240553Z AUTO 00000KT 10SM CLR 23/20 A2995 RMK AO2 SLP131 T02280200 10317 20228 403560228 50011
KOUN - Norman/Westheime, Oklahoma, USA
Distance from station: SSW 84mi, 136km
Updated: Mon, 24-Jul-2017 1:15am CDT
Clear
Clear
 Wind from SSW
Wind: SSW 10 mph , 17 km/h
Temperature: 73°F , 23°C
Dew Point: 70°F , 21°C
Humidity: 89%
Barometer: 1015.6 hPa
Clouds: Clear
Visibility: 10 miles , 16 km
2017/07/24 06:15 KOUN 240615Z AUTO 21009KT 10SM CLR 23/21 A2999 RMK AO2
KOKC - Oklahoma City, Oklahoma, USA
Distance from station: SSW 78mi, 126km
Updated: Mon, 24-Jul-2017 12:52am CDT
Mostly cloudy
Mostly cloudy
 Wind from S
Wind: S 9 mph , 15 km/h
Temperature: 72°F , 22°C
Dew Point: 70°F , 21°C
Humidity: 94%
Barometer: 1015.2 hPa
Clouds: Mostly cloudy
Visibility: 10 miles , 16 km
Cloud details: Few Clouds 15000 ft
Partly cloudy 18000 ft
Mostly cloudy 25000 ft
2017/07/24 05:52 KOKC 240552Z 19008KT 10SM FEW150 SCT180 BKN250 22/21 A2998 RMK AO2 SLP132 T02220206 10289 20217 403720217 53007
 
KPWA - Okla City/Wiley, Oklahoma, USA
Distance from station: SSW 70mi, 113km
Updated: Mon, 24-Jul-2017 12:53am CDT
Clear
Clear
 Wind from S
Wind: S 8 mph , 13 km/h
Temperature: 75°F , 24°C
Dew Point: 70°F , 21°C
Humidity: 83%
Barometer: 1014.9 hPa
Clouds: Clear
Visibility: 10 miles , 16 km
2017/07/24 05:53 KPWA 240553Z AUTO 18007KT 10SM CLR 24/21 A2997 RMK AO2 SLP129 T02390211 10311 20239 403720239 51008 $
KRCE - Okla City/Page, Oklahoma, USA
Distance from station: SW 78mi, 126km
Updated: Mon, 19-Jun-2017 2:35am CDT
NOT Current

 
2017/06/19 07:35 KRCE 190735Z AUTO RMK AO2
KOKM - Okmulgee, Oklahoma, USA
Distance from station: SE 79mi, 127km
Updated: Mon, 24-Jul-2017 1:15am CDT

 
2017/07/24 06:15 KOKM 240615Z AUTO RMK AO2 PNO TSNO
 
KPNC - Ponca City, Oklahoma, USA
Distance from station: N 22mi, 36km
Updated: Mon, 24-Jul-2017 12:53am CDT
Clear
Clear
 Wind from S
Wind: S 3 mph , 6 km/h
Temperature: 79°F , 26°C
Dew Point: 68°F , 20°C
Humidity: 70%
Barometer: 1014.6 hPa
Clouds: Clear
Visibility: 10 miles , 16 km
2017/07/24 05:53 KPNC 240553Z AUTO 18003KT 10SM CLR 26/20 A2996 RMK AO2 SLP130 T02610200 10350 20244 403560244 53012 TSNO
KSNL - Shawnee, Oklahoma, USA
Distance from station: S 74mi, 119km
Updated: Mon, 24-Jul-2017 1:15am CDT
Clear
Clear
 Wind from S
Wind: S 5 mph , 7 km/h
Temperature: 72°F , 22°C
Dew Point: 68°F , 20°C
Humidity: 88%
Barometer: 1014.9 hPa
Clouds: Clear
Visibility: 10 miles , 16 km
2017/07/24 06:15 KSNL 240615Z AUTO 17004KT 10SM CLR 22/20 A2997 RMK AO2 T02150201
KSWO - Stillwater, Oklahoma, USA
Distance from station: S 17mi, 28km
Updated: Mon, 24-Jul-2017 12:53am CDT
Clear
Clear
 Wind from S
Wind: S 5 mph , 7 km/h
Temperature: 73°F , 23°C
Dew Point: 66°F , 19°C
Humidity: 78%
Barometer: 1014.2 hPa
Clouds: Clear
Visibility: 10 miles , 16 km
2017/07/24 05:53 KSWO 240553Z AUTO 17004KT 10SM CLR 23/19 A2995 RMK AO2 SLP128 T02280194 10328 20228 403560228 51010
 
KTIK - Tinker Afb, Oklahoma, USA
Distance from station: SSW 72mi, 115km
Updated: Mon, 24-Jul-2017 12:58am CDT
Clear
Clear
 Wind from S
Wind: S 9 mph , 15 km/h
Temperature: 72°F , 22°C
Dew Point: 68°F , 20°C
Humidity: 88%
Barometer: 1014.6 hPa
Clouds: Clear
Visibility: 10 miles , 16 km
2017/07/24 05:58 KTIK 240558Z AUTO 18008KT 10SM CLR 22/20 A2996 RMK AO2 SLP137 T02240202 10268 20224 403690224 53003 $
KTUL - Tulsa, Oklahoma, USA
Distance from station: ESE 65mi, 105km
Updated: Mon, 24-Jul-2017 12:53am CDT
Mostly cloudy
Mostly cloudy
 Wind from WSW
Wind: WSW 7 mph , 11 km/h
Temperature: 79°F , 26°C
Dew Point: 72°F , 22°C
Humidity: 79%
Barometer: 1013.5 hPa
Clouds: Mostly cloudy
Visibility: 10 miles , 16 km
Cloud details: Mostly cloudy 25000 ft
2017/07/24 05:53 KTUL 240553Z 25006KT 10SM BKN250 26/22 A2993 RMK AO2 SLP125 T02610217 10328 20256 403560250 51009 $